Pacific - Georgia Basin: Past 24 Hour Conditions

 

Vancouver Int'l Airport

09:00 PM PDT 15 September 2014
This table is a summary of hourly weather conditions for the past 24 hours.
Date / Time
(PDT)
Wind(knots) Conditions Visibility(km) Pressure(kPa) Air tempC) Relative humidity(%) Dew pointC) Humidex
15 September 2014
21:00 NW 5 Clear 24 100.9 15 93 14 *
20:00 WNW 6 Clear 32 100.9 15 91 14 *
19:00 W 4 Mainly Sunny 48 100.9 19 70 13 *
18:00 WNW 4 Mainly Sunny 48 100.9 21 53 11 *
17:00 WNW 5 Mainly Sunny 48 101.0 23 50 12 25
16:00 WNW 6 Mainly Sunny 48 101.0 22 58 14 25
15:00 WNW 8 Mainly Sunny 48 101.1 22 58 13 25
14:00 W 8 Mainly Sunny 48 101.1 21 57 13 *
13:00 W 6 Mainly Sunny 48 101.2 21 64 14 *
12:00 WNW 6 Mainly Sunny 48 101.2 21 62 14 *
11:00 W 4 Mainly Sunny 48 101.2 20 72 15 *
10:00 SW 2 Mainly Sunny 48 101.3 18 80 15 *
9:00 ESE 3 Mainly Sunny 48 101.2 18 69 12 *
8:00 ESE 5 Mainly Sunny 48 101.3 14 83 12 *
7:00 E 4 Sunny 48 101.3 13 83 10 *
6:00 E 4 Clear 24 101.2 12 88 10 *
5:00 ESE 4 Clear 24 101.2 12 86 9 *
4:00 N 2 Clear 24 101.2 12 83 9 *
3:00 ESE 2 Clear 24 101.2 13 77 10 *
2:00 N 1 Clear 24 101.2 13 81 10 *
1:00 ESE 2 Clear 24 101.2 14 82 11 *
0:00 NNW 4 Clear 24 101.2 13 87 11 *
14 September 2014
23:00 NNW 2 Clear 24 101.1 15 85 12 *
22:00 NW 3 Clear 24 101.1 15 97 14 *
21:00 W 3 Clear 24 101.1 15 94 14 *
 
Map of Pacific - Georgia Basin marine weather areas Tsawwassen Ferry Terminal Sentry Shoal - 46131 Halibut Bank - 46146 La Perouse Bank - 46206 Discovery Island Esquimalt Harbour Kelp Reefs Malahat Race Rocks Lightstation Saturna Island Sheringham Point University of Victoria Victoria Gonzales Victoria Int'l Airport Ballenas Islands Campbell River Airport Comox Airport Entrance Island Fanny Island Nanaimo Airport Sisters Islets Estevan Point Tofino Airport Grief Point Powell River Airport Sechelt Point Atkinson Sand Heads Lightstation Vancouver Harbour Vancouver Int'l Airport West Vancouver Port Alberni Howe Sound - Pam Rocks Squamish Airport